Time;durP1;ratioP1;P1;durP2;ratioP2;P2;SDS_P1;SDS_P2;PMS_P1;PMS_P2;Temp;Humidity;BMP_temperature;BMP_pressure;BME280_temperature;BME280_humidity;BME280_pressure;Samples;Min_cycle;Max_cycle;Signal;HPM_P1;HPM_P2
2021/05/22 00:02:12;;;;;;;3.45;1.00;;;;;;;;;;5056934;28;20040;-78
2021/05/22 00:04:38;;;;;;;6.78;1.48;;;;;;;;;;5057178;28;20052;-78
2021/05/22 00:07:04;;;;;;;6.68;1.40;;;;;;;;;;5057302;28;20047;-79
2021/05/22 00:09:30;;;;;;;6.63;1.73;;;;;;;;;;5056913;28;20531;-79
2021/05/22 00:11:55;;;;;;;4.07;1.17;;;;;;;;;;5037640;28;20029;-79
2021/05/22 00:14:21;;;;;;;5.07;1.45;;;;;;;;;;5056936;28;20068;-78
2021/05/22 00:16:46;;;;;;;2.83;0.80;;;;;;;;;;5056572;28;20059;-78
2021/05/22 00:19:11;;;;;;;3.45;0.75;;;;;;;;;;5056012;28;20076;-78
2021/05/22 00:21:37;;;;;;;1.25;0.70;;;;;;;;;;5055764;28;20118;-78
2021/05/22 00:24:03;;;;;;;2.28;0.98;;;;;;;;;;5038809;28;20044;-78
2021/05/22 00:26:28;;;;;;;2.47;0.73;;;;;;;;;;5037691;28;20033;-78
2021/05/22 00:28:53;;;;;;;3.78;0.82;;;;;;;;;;5055600;28;20033;-78
2021/05/22 00:31:19;;;;;;;2.25;0.82;;;;;;;;;;5055826;28;20041;-77
2021/05/22 00:33:44;;;;;;;3.00;1.25;;;;;;;;;;5056036;28;20047;-78
2021/05/22 00:36:10;;;;;;;4.97;0.88;;;;;;;;;;5056147;28;20041;-78
2021/05/22 00:38:35;;;;;;;7.15;0.88;;;;;;;;;;5055514;28;20078;-78
2021/05/22 00:41:00;;;;;;;2.70;0.75;;;;;;;;;;5037188;28;20040;-77
2021/05/22 00:43:26;;;;;;;2.08;0.70;;;;;;;;;;5054050;28;20083;-77
2021/05/22 00:45:54;;;;;;;2.13;0.80;;;;;;;;;;5054796;28;20033;-77
2021/05/22 00:48:20;;;;;;;1.90;0.82;;;;;;;;;;5054602;28;20029;-77
2021/05/22 00:50:46;;;;;;;1.85;0.80;;;;;;;;;;5054523;28;20041;-77
2021/05/22 00:53:12;;;;;;;4.47;1.10;;;;;;;;;;5053857;28;20110;-77
2021/05/22 00:55:38;;;;;;;7.60;1.00;;;;;;;;;;5054343;28;20475;-77
2021/05/22 00:58:04;;;;;;;1.77;0.90;;;;;;;;;;5054195;28;20082;-78
2021/05/22 01:00:48;;;;;;;3.60;0.90;;;;;;;;;;5035931;28;20033;-77
2021/05/22 01:03:25;;;;;;;2.05;0.80;;;;;;;;;;5053875;28;20127;-77
2021/05/22 01:05:58;;;;;;;3.28;0.90;;;;;;;;;;5036036;28;20552;-77
2021/05/22 01:08:24;;;;;;;8.93;2.13;;;;;;;;;;5054527;28;20032;-77
2021/05/22 01:11:02;;;;;;;2.58;1.63;;;;;;;;;;5053668;28;20501;-78
2021/05/22 01:13:32;;;;;;;2.13;0.88;;;;;;;;;;5035679;28;20040;-77
2021/05/22 01:15:58;;;;;;;3.60;0.90;;;;;;;;;;5054142;28;20059;-78
2021/05/22 01:18:24;;;;;;;2.08;0.95;;;;;;;;;;5053734;28;20033;-78
2021/05/22 01:20:59;;;;;;;3.47;0.63;;;;;;;;;;5054440;28;20106;-78
2021/05/22 01:23:31;;;;;;;3.95;1.10;;;;;;;;;;5042739;28;20116;-79
2021/05/22 01:25:57;;;;;;;2.50;0.82;;;;;;;;;;5025787;28;20037;-79
2021/05/22 01:28:23;;;;;;;2.30;0.93;;;;;;;;;;5033043;28;20033;-77
2021/05/22 01:30:49;;;;;;;4.60;1.05;;;;;;;;;;5015419;28;20067;-78
2021/05/22 01:33:17;;;;;;;5.03;1.20;;;;;;;;;;5032738;28;20124;-77
2021/05/22 01:35:43;;;;;;;2.58;0.77;;;;;;;;;;5033011;28;20038;-77
2021/05/22 01:38:08;;;;;;;6.53;1.48;;;;;;;;;;5032552;28;20079;-77
2021/05/22 01:40:35;;;;;;;3.58;0.90;;;;;;;;;;5033556;28;20029;-77
2021/05/22 01:43:01;;;;;;;3.75;0.85;;;;;;;;;;5032573;28;20052;-77
2021/05/22 01:45:28;;;;;;;4.35;1.00;;;;;;;;;;5032981;28;20034;-77
2021/05/22 01:47:56;;;;;;;4.53;1.10;;;;;;;;;;5031835;28;20257;-77
2021/05/22 01:50:23;;;;;;;5.82;0.90;;;;;;;;;;5033179;28;20040;-78
2021/05/22 01:52:52;;;;;;;5.75;1.00;;;;;;;;;;5038597;28;20410;-77
2021/05/22 01:55:18;;;;;;;1.75;0.85;;;;;;;;;;5052737;28;20043;-77
2021/05/22 01:57:44;;;;;;;4.32;0.93;;;;;;;;;;5052641;28;20046;-77
2021/05/22 02:00:11;;;;;;;5.82;1.00;;;;;;;;;;5053043;28;20037;-77
2021/05/22 02:02:53;;;;;;;3.92;1.35;;;;;;;;;;5052996;28;20391;-77
2021/05/22 02:05:20;;;;;;;8.55;1.05;;;;;;;;;;5038360;28;20028;-77
2021/05/22 02:07:48;;;;;;;3.88;1.10;;;;;;;;;;5056706;28;20064;-77
2021/05/22 02:10:14;;;;;;;3.15;0.90;;;;;;;;;;5056502;28;20110;-77
2021/05/22 02:12:41;;;;;;;3.75;0.93;;;;;;;;;;5038489;28;20435;-77
2021/05/22 02:15:10;;;;;;;6.50;1.05;;;;;;;;;;5055826;28;20040;-77
2021/05/22 02:17:38;;;;;;;5.70;1.15;;;;;;;;;;5038882;28;20041;-77
2021/05/22 02:20:06;;;;;;;5.13;1.00;;;;;;;;;;5056296;28;20063;-77
2021/05/22 02:22:33;;;;;;;3.17;0.90;;;;;;;;;;5053336;28;20034;-78
2021/05/22 02:24:58;;;;;;;3.05;0.95;;;;;;;;;;5019343;28;20029;-77
2021/05/22 02:27:24;;;;;;;3.22;1.02;;;;;;;;;;5037064;28;20379;-77
2021/05/22 02:29:51;;;;;;;6.45;1.20;;;;;;;;;;5035914;28;20115;-78
2021/05/22 02:32:18;;;;;;;2.05;1.00;;;;;;;;;;5036651;28;20056;-79
2021/05/22 02:34:56;;;;;;;5.07;1.48;;;;;;;;;;5037257;28;20081;-77
2021/05/22 02:37:26;;;;;;;3.83;1.15;;;;;;;;;;5036717;28;20056;-78
2021/05/22 02:39:53;;;;;;;4.57;1.52;;;;;;;;;;5018574;28;20414;-78
2021/05/22 02:42:19;;;;;;;3.13;1.40;;;;;;;;;;5037067;28;20407;-79
2021/05/22 02:44:51;;;;;;;4.05;1.20;;;;;;;;;;5058600;28;20035;-79
2021/05/22 02:47:19;;;;;;;1.48;1.00;;;;;;;;;;5076635;28;20048;-79
2021/05/22 02:49:46;;;;;;;2.72;1.13;;;;;;;;;;5076613;28;20510;-78
2021/05/22 02:52:17;;;;;;;4.00;1.52;;;;;;;;;;5076263;28;20530;-78
2021/05/22 02:54:44;;;;;;;2.95;1.20;;;;;;;;;;5075980;28;20046;-79
2021/05/22 02:57:11;;;;;;;9.05;1.92;;;;;;;;;;5075654;28;20068;-78
2021/05/22 02:59:39;;;;;;;7.35;2.10;;;;;;;;;;5075476;28;20060;-78
2021/05/22 03:02:05;;;;;;;2.25;1.10;;;;;;;;;;5057688;28;20040;-78
2021/05/22 03:04:31;;;;;;;5.97;1.40;;;;;;;;;;5076310;28;20031;-78
2021/05/22 03:06:58;;;;;;;4.22;1.52;;;;;;;;;;5076060;28;20041;-78
2021/05/22 03:09:24;;;;;;;4.78;1.67;;;;;;;;;;5075634;28;20128;-78
2021/05/22 03:11:49;;;;;;;4.22;1.30;;;;;;;;;;5057715;28;20076;-78
2021/05/22 03:14:14;;;;;;;6.75;1.70;;;;;;;;;;5057620;28;20028;-78
2021/05/22 03:16:40;;;;;;;4.07;1.30;;;;;;;;;;5076065;28;20032;-78
2021/05/22 03:19:05;;;;;;;6.35;1.40;;;;;;;;;;5057603;28;20033;-78
2021/05/22 03:21:31;;;;;;;5.72;1.23;;;;;;;;;;5058017;28;20123;-77
2021/05/22 03:23:57;;;;;;;6.55;1.85;;;;;;;;;;5040145;28;20040;-77
2021/05/22 03:26:22;;;;;;;3.13;1.20;;;;;;;;;;5036096;28;20425;-77
2021/05/22 03:28:47;;;;;;;3.65;1.30;;;;;;;;;;5035537;28;20493;-77
2021/05/22 03:31:13;;;;;;;4.72;1.35;;;;;;;;;;5035799;28;20034;-77
2021/05/22 03:33:39;;;;;;;5.03;1.73;;;;;;;;;;5035168;28;20060;-78
2021/05/22 03:36:04;;;;;;;8.32;1.67;;;;;;;;;;5035526;28;20041;-77
2021/05/22 03:38:30;;;;;;;4.03;1.50;;;;;;;;;;5035016;28;20037;-77
2021/05/22 03:40:55;;;;;;;4.28;1.48;;;;;;;;;;5035123;28;20029;-78
2021/05/22 03:43:21;;;;;;;6.22;1.60;;;;;;;;;;5034097;28;20420;-80
2021/05/22 03:45:46;;;;;;;9.27;1.83;;;;;;;;;;5035331;28;20060;-77
2021/05/22 03:48:12;;;;;;;8.45;2.63;;;;;;;;;;5034923;28;20044;-77
2021/05/22 03:50:37;;;;;;;12.57;2.88;;;;;;;;;;5035328;28;20076;-77
2021/05/22 03:53:03;;;;;;;7.35;1.90;;;;;;;;;;5042612;28;20033;-77
2021/05/22 03:55:29;;;;;;;6.30;1.45;;;;;;;;;;5055691;28;20547;-78
2021/05/22 03:57:54;;;;;;;7.22;1.60;;;;;;;;;;5055544;28;20098;-78
2021/05/22 04:00:20;;;;;;;5.15;1.42;;;;;;;;;;5055103;28;20041;-78
2021/05/22 04:02:46;;;;;;;4.90;1.95;;;;;;;;;;5021312;28;20037;-78
2021/05/22 04:05:12;;;;;;;3.95;1.50;;;;;;;;;;5055746;28;20021;-77
2021/05/22 04:07:37;;;;;;;4.80;1.77;;;;;;;;;;5054591;28;20116;-79
2021/05/22 04:10:04;;;;;;;5.90;1.55;;;;;;;;;;5036197;28;20100;-77
2021/05/22 04:12:29;;;;;;;4.55;1.52;;;;;;;;;;5054692;28;20061;-77
2021/05/22 04:14:55;;;;;;;10.10;2.35;;;;;;;;;;5036859;28;20418;-77
2021/05/22 04:17:20;;;;;;;6.32;2.17;;;;;;;;;;5054437;28;20478;-77
2021/05/22 04:19:46;;;;;;;8.90;1.67;;;;;;;;;;5054377;28;20102;-77
2021/05/22 04:22:11;;;;;;;7.40;2.05;;;;;;;;;;5054294;28;20028;-77
2021/05/22 04:24:37;;;;;;;6.32;1.58;;;;;;;;;;5054343;28;20448;-77
2021/05/22 04:27:03;;;;;;;6.60;1.65;;;;;;;;;;5053512;28;20502;-77
2021/05/22 04:29:28;;;;;;;5.30;1.70;;;;;;;;;;5054711;28;20032;-77
2021/05/22 04:31:54;;;;;;;5.88;1.80;;;;;;;;;;5036560;28;20162;-77
2021/05/22 04:34:19;;;;;;;8.48;1.55;;;;;;;;;;5054261;28;20043;-77
2021/05/22 04:36:45;;;;;;;5.90;1.83;;;;;;;;;;5036613;28;20454;-78
2021/05/22 04:39:10;;;;;;;10.38;1.83;;;;;;;;;;5054539;28;20040;-80
2021/05/22 04:41:36;;;;;;;5.57;1.70;;;;;;;;;;5054839;28;20036;-78
2021/05/22 04:44:02;;;;;;;5.60;1.85;;;;;;;;;;5036606;28;20067;-78
2021/05/22 04:46:27;;;;;;;6.78;1.90;;;;;;;;;;5054057;28;20494;-78
2021/05/22 04:48:54;;;;;;;6.00;2.03;;;;;;;;;;5035950;28;20029;-78
2021/05/22 04:51:21;;;;;;;8.35;2.17;;;;;;;;;;5035370;28;20553;-78
2021/05/22 04:53:46;;;;;;;7.13;2.10;;;;;;;;;;5035727;28;20478;-77
2021/05/22 04:56:12;;;;;;;7.68;1.70;;;;;;;;;;5036223;28;20039;-77
2021/05/22 04:58:37;;;;;;;7.63;1.67;;;;;;;;;;5036335;28;20052;-78
2021/05/22 05:01:03;;;;;;;6.75;1.90;;;;;;;;;;5034271;28;20083;-78
2021/05/22 05:03:28;;;;;;;5.93;1.77;;;;;;;;;;5035807;28;20049;-77
2021/05/22 05:05:53;;;;;;;8.48;1.92;;;;;;;;;;5034267;28;20045;-77
2021/05/22 05:08:20;;;;;;;8.98;2.45;;;;;;;;;;5033685;28;20052;-77
2021/05/22 05:10:49;;;;;;;5.15;1.73;;;;;;;;;;5015642;28;20040;-77
2021/05/22 05:13:16;;;;;;;8.40;1.63;;;;;;;;;;5033244;28;20065;-77
2021/05/22 05:15:42;;;;;;;6.75;2.45;;;;;;;;;;5037062;28;20036;-77
2021/05/22 05:18:08;;;;;;;8.73;1.73;;;;;;;;;;5052895;28;20033;-77
2021/05/22 05:20:33;;;;;;;8.75;2.80;;;;;;;;;;5035223;28;20033;-77
2021/05/22 05:22:58;;;;;;;8.38;2.08;;;;;;;;;;5053245;28;20072;-77
2021/05/22 05:25:24;;;;;;;10.27;2.45;;;;;;;;;;5053029;28;20111;-77
2021/05/22 05:27:49;;;;;;;10.30;2.50;;;;;;;;;;5053193;28;20091;-77
2021/05/22 05:30:16;;;;;;;8.18;1.70;;;;;;;;;;5035073;28;20029;-77
2021/05/22 05:32:41;;;;;;;9.27;2.08;;;;;;;;;;5052791;28;20033;-77
2021/05/22 05:35:09;;;;;;;11.68;2.47;;;;;;;;;;5052487;28;20537;-77
2021/05/22 05:37:35;;;;;;;12.25;2.55;;;;;;;;;;5052681;28;20037;-76
2021/05/22 05:40:01;;;;;;;7.03;1.70;;;;;;;;;;5056802;28;20043;-77
2021/05/22 05:42:26;;;;;;;7.68;1.90;;;;;;;;;;5056347;28;20041;-77
2021/05/22 05:44:52;;;;;;;8.27;2.05;;;;;;;;;;5056303;28;20041;-77
2021/05/22 05:47:17;;;;;;;7.20;2.00;;;;;;;;;;5056481;28;20044;-77
2021/05/22 05:49:43;;;;;;;6.90;1.60;;;;;;;;;;5055410;28;20075;-76
2021/05/22 05:52:09;;;;;;;6.47;1.65;;;;;;;;;;5056197;28;20036;-76
2021/05/22 05:54:34;;;;;;;6.00;2.65;;;;;;;;;;5056216;28;20029;-77
2021/05/22 05:57:00;;;;;;;10.57;2.15;;;;;;;;;;5038408;28;20044;-77
2021/05/22 05:59:25;;;;;;;3.60;1.40;;;;;;;;;;5056177;28;20052;-77
2021/05/22 06:01:50;;;;;;;7.82;2.05;;;;;;;;;;5056293;28;20036;-76
2021/05/22 06:04:16;;;;;;;8.23;1.60;;;;;;;;;;5056133;28;20033;-77
2021/05/22 06:06:41;;;;;;;6.97;1.75;;;;;;;;;;5055808;28;20029;-77
2021/05/22 06:09:07;;;;;;;6.68;1.45;;;;;;;;;;5057895;28;20366;-76
2021/05/22 06:11:35;;;;;;;11.48;2.00;;;;;;;;;;5056432;28;20025;-76
2021/05/22 06:14:00;;;;;;;9.50;2.45;;;;;;;;;;5058304;28;20029;-75
2021/05/22 06:16:36;;;;;;;9.77;1.90;;;;;;;;;;5057418;28;20554;-76
2021/05/22 06:19:02;;;;;;;6.95;1.67;;;;;;;;;;5057349;28;20033;-80
2021/05/22 06:21:27;;;;;;;5.78;1.65;;;;;;;;;;5057019;28;20025;-75
2021/05/22 06:23:53;;;;;;;12.10;2.13;;;;;;;;;;5055698;28;20578;-75
2021/05/22 06:26:18;;;;;;;12.40;1.77;;;;;;;;;;5056355;28;20032;-76
2021/05/22 06:28:44;;;;;;;9.32;1.70;;;;;;;;;;5037709;28;20762;-76
2021/05/22 06:31:10;;;;;;;7.90;1.88;;;;;;;;;;5055506;28;20482;-76
2021/05/22 06:33:35;;;;;;;8.95;2.47;;;;;;;;;;5055076;28;20048;-75
2021/05/22 06:36:02;;;;;;;8.65;1.70;;;;;;;;;;5037688;28;20033;-76
2021/05/22 06:38:27;;;;;;;7.25;1.60;;;;;;;;;;5055488;28;20178;-76
2021/05/22 06:40:53;;;;;;;7.32;1.80;;;;;;;;;;5054427;28;20115;-76
2021/05/22 06:43:19;;;;;;;8.43;1.60;;;;;;;;;;5055044;28;20110;-76
2021/05/22 06:45:47;;;;;;;5.93;1.73;;;;;;;;;;5055508;28;20036;-76
2021/05/22 06:48:14;;;;;;;6.47;1.50;;;;;;;;;;5055211;28;20040;-76
2021/05/22 06:50:40;;;;;;;9.43;2.30;;;;;;;;;;5054150;28;20041;-76
2021/05/22 06:53:06;;;;;;;7.38;1.92;;;;;;;;;;5038510;28;20039;-79
2021/05/22 06:55:32;;;;;;;7.43;1.73;;;;;;;;;;5055636;28;20028;-79
2021/05/22 06:57:59;;;;;;;6.38;1.52;;;;;;;;;;5040319;28;20044;-78
2021/05/22 07:00:25;;;;;;;6.22;1.42;;;;;;;;;;5057900;28;20037;-78
2021/05/22 07:02:50;;;;;;;9.00;1.80;;;;;;;;;;5058385;28;20493;-82
2021/05/22 07:05:16;;;;;;;8.43;1.98;;;;;;;;;;5023205;28;20036;-79
2021/05/22 07:07:42;;;;;;;11.95;1.60;;;;;;;;;;5061119;28;20056;-79
2021/05/22 07:10:12;;;;;;;8.43;1.58;;;;;;;;;;5060925;28;20556;-80
2021/05/22 07:12:39;;;;;;;4.85;1.50;;;;;;;;;;5059011;28;20040;-80
2021/05/22 07:15:05;;;;;;;6.60;1.70;;;;;;;;;;5063062;28;20045;-80
2021/05/22 07:17:31;;;;;;;7.85;1.73;;;;;;;;;;5060630;28;20513;-83
2021/05/22 07:19:57;;;;;;;8.75;1.73;;;;;;;;;;5059972;28;20029;-81
2021/05/22 07:22:22;;;;;;;8.95;1.77;;;;;;;;;;5060960;28;20028;-78
2021/05/22 07:24:48;;;;;;;6.55;1.33;;;;;;;;;;5061442;28;20586;-78
2021/05/22 07:27:18;;;;;;;10.55;1.52;;;;;;;;;;5062746;28;20029;-80
2021/05/22 07:29:46;;;;;;;7.63;1.77;;;;;;;;;;5063247;28;20482;-80
2021/05/22 07:32:11;;;;;;;10.50;1.92;;;;;;;;;;5063505;28;20517;-81
2021/05/22 07:34:37;;;;;;;9.75;1.60;;;;;;;;;;5043326;28;20045;-82
2021/05/22 07:37:02;;;;;;;12.18;2.35;;;;;;;;;;5061661;28;20040;-79
2021/05/22 07:39:28;;;;;;;10.60;1.55;;;;;;;;;;5060440;28;20052;-80
2021/05/22 07:41:53;;;;;;;6.38;1.60;;;;;;;;;;5057521;28;20040;-79
2021/05/22 07:44:18;;;;;;;10.55;1.55;;;;;;;;;;5058001;28;20067;-76
2021/05/22 07:46:44;;;;;;;8.82;1.55;;;;;;;;;;5055025;28;20055;-81
2021/05/22 07:49:10;;;;;;;5.90;1.38;;;;;;;;;;5058467;28;20107;-79
2021/05/22 07:51:35;;;;;;;7.78;1.33;;;;;;;;;;5055960;28;20449;-78
2021/05/22 07:54:01;;;;;;;6.07;1.50;;;;;;;;;;5054557;28;20095;-77
2021/05/22 07:56:27;;;;;;;5.47;1.48;;;;;;;;;;5053647;28;20033;-76
2021/05/22 07:58:52;;;;;;;5.43;1.45;;;;;;;;;;5036254;28;20029;-77
2021/05/22 08:01:18;;;;;;;6.35;1.15;;;;;;;;;;5054724;28;20037;-77
2021/05/22 08:03:43;;;;;;;6.35;1.30;;;;;;;;;;5053840;28;20029;-76
2021/05/22 08:06:10;;;;;;;4.30;1.50;;;;;;;;;;5036314;28;20036;-76
2021/05/22 08:08:35;;;;;;;5.80;1.30;;;;;;;;;;5054118;28;20091;-77
2021/05/22 08:11:01;;;;;;;4.70;1.45;;;;;;;;;;5053661;28;20061;-77
2021/05/22 08:13:28;;;;;;;5.10;1.27;;;;;;;;;;5054013;28;20048;-76
2021/05/22 08:15:57;;;;;;;8.98;1.30;;;;;;;;;;5053595;28;20029;-77
2021/05/22 08:18:22;;;;;;;3.97;1.88;;;;;;;;;;5048896;28;20037;-76
2021/05/22 08:20:53;;;;;;;10.25;1.60;;;;;;;;;;5053267;28;20041;-78
2021/05/22 08:23:20;;;;;;;6.32;1.33;;;;;;;;;;5050090;28;20130;-76
2021/05/22 08:25:45;;;;;;;6.10;1.60;;;;;;;;;;5048827;28;20021;-76
2021/05/22 08:28:12;;;;;;;3.10;1.00;;;;;;;;;;5054950;28;20482;-73
2021/05/22 08:30:37;;;;;;;5.78;1.92;;;;;;;;;;5050979;28;20110;-75
2021/05/22 08:33:03;;;;;;;7.70;1.63;;;;;;;;;;5042435;28;20095;-78
2021/05/22 08:35:30;;;;;;;12.20;1.70;;;;;;;;;;5046833;28;20052;-78
2021/05/22 08:37:56;;;;;;;11.52;2.10;;;;;;;;;;5056109;28;20394;-79
2021/05/22 08:40:26;;;;;;;7.45;1.35;;;;;;;;;;5057397;28;20029;-81
2021/05/22 08:42:52;;;;;;;3.45;1.10;;;;;;;;;;5040230;28;20041;-80
2021/05/22 08:45:20;;;;;;;3.53;1.17;;;;;;;;;;5067114;28;20039;-76
2021/05/22 08:47:48;;;;;;;5.47;1.15;;;;;;;;;;5058372;28;20498;-81
2021/05/22 08:50:14;;;;;;;5.63;1.10;;;;;;;;;;5056654;28;20040;-83
2021/05/22 08:52:40;;;;;;;5.10;1.15;;;;;;;;;;5055259;28;20047;-83
2021/05/22 08:55:07;;;;;;;3.53;1.20;;;;;;;;;;5036146;28;20033;-84
2021/05/22 08:57:33;;;;;;;5.35;1.00;;;;;;;;;;5033528;28;20052;-83
2021/05/22 08:59:58;;;;;;;5.22;1.00;;;;;;;;;;5020004;28;20037;-81
2021/05/22 09:02:26;;;;;;;5.53;1.45;;;;;;;;;;5051199;28;20047;-81
2021/05/22 09:05:10;;;;;;;7.53;1.80;;;;;;;;;;5043674;28;20486;-80
2021/05/22 09:07:43;;;;;;;3.55;1.08;;;;;;;;;;5056166;28;20122;-81
2021/05/22 09:10:12;;;;;;;2.85;0.85;;;;;;;;;;5056887;28;20029;-85
2021/05/22 09:12:40;;;;;;;5.85;1.42;;;;;;;;;;5022639;28;20063;-83
2021/05/22 09:15:09;;;;;;;7.13;1.15;;;;;;;;;;5062705;28;20028;-81
2021/05/22 09:17:36;;;;;;;4.13;1.17;;;;;;;;;;5068491;28;20036;-82
2021/05/22 09:20:20;;;;;;;4.10;0.90;;;;;;;;;;5070648;28;20417;-82
2021/05/22 09:22:55;;;;;;;3.40;1.23;;;;;;;;;;5053045;28;20036;-82
2021/05/22 09:25:20;;;;;;;3.67;0.90;;;;;;;;;;5063396;28;20060;-81
2021/05/22 09:27:46;;;;;;;4.63;1.13;;;;;;;;;;5045230;28;20029;-83
2021/05/22 09:30:14;;;;;;;3.63;1.55;;;;;;;;;;5028270;28;20036;-82
2021/05/22 09:32:40;;;;;;;4.25;1.05;;;;;;;;;;5063928;28;20594;-86
2021/05/22 09:35:08;;;;;;;5.78;1.13;;;;;;;;;;5044748;28;20045;-77
2021/05/22 09:37:42;;;;;;;5.55;1.27;;;;;;;;;;5062977;28;20024;-80
2021/05/22 09:40:07;;;;;;;6.30;1.33;;;;;;;;;;5063049;28;20045;-79
2021/05/22 09:42:33;;;;;;;8.10;0.95;;;;;;;;;;5064496;28;20091;-78
2021/05/22 09:44:58;;;;;;;3.95;0.88;;;;;;;;;;5064998;28;20033;-78
2021/05/22 09:47:24;;;;;;;4.95;1.23;;;;;;;;;;5044874;28;20524;-81
2021/05/22 09:49:50;;;;;;;4.07;0.93;;;;;;;;;;5052112;28;20047;-83
2021/05/22 09:52:17;;;;;;;2.03;0.80;;;;;;;;;;5063959;28;20067;-74
2021/05/22 09:55:09;;;;;;;6.47;0.75;;;;;;;;;;5039977;28;20025;-75
2021/05/22 09:57:35;;;;;;;4.45;1.85;;;;;;;;;;5056901;28;20048;-78
2021/05/22 10:00:14;;;;;;;6.75;2.65;;;;;;;;;;5060608;28;20079;-76
2021/05/22 10:02:46;;;;;;;4.05;0.80;;;;;;;;;;5060757;28;20033;-74
2021/05/22 10:05:18;;;;;;;4.53;0.70;;;;;;;;;;5059049;28;20094;-77
2021/05/22 10:07:45;;;;;;;4.50;1.00;;;;;;;;;;5058910;28;20036;-77
2021/05/22 10:10:12;;;;;;;7.35;1.00;;;;;;;;;;5045741;28;20119;-81
2021/05/22 10:12:39;;;;;;;3.05;1.08;;;;;;;;;;5053884;28;20068;-80
2021/05/22 10:15:06;;;;;;;3.55;0.75;;;;;;;;;;5051879;28;20041;-77
2021/05/22 10:17:32;;;;;;;3.35;1.15;;;;;;;;;;5064350;28;20063;-77
2021/05/22 10:19:58;;;;;;;3.78;0.80;;;;;;;;;;5059455;28;20040;-77
2021/05/22 10:22:24;;;;;;;3.75;0.98;;;;;;;;;;5062384;28;20033;-78
2021/05/22 10:24:52;;;;;;;6.05;1.42;;;;;;;;;;5064026;28;20093;-76
2021/05/22 10:27:22;;;;;;;2.80;0.80;;;;;;;;;;5056516;28;20047;-77
2021/05/22 10:29:48;;;;;;;3.80;1.00;;;;;;;;;;5056329;28;20047;-75
2021/05/22 10:32:21;;;;;;;3.97;0.98;;;;;;;;;;5055053;28;20052;-75
2021/05/22 10:34:48;;;;;;;2.00;0.88;;;;;;;;;;5037598;28;20391;-75
2021/05/22 10:37:38;;;;;;;10.95;1.08;;;;;;;;;;5037753;28;20094;-75
2021/05/22 10:40:05;;;;;;;4.35;1.40;;;;;;;;;;5055350;28;20037;-75
2021/05/22 10:42:33;;;;;;;1.85;0.60;;;;;;;;;;5055070;28;20024;-74
2021/05/22 10:45:32;;;;;;;6.57;0.90;;;;;;;;;;5038124;28;20029;-75
2021/05/22 10:48:00;;;;;;;5.47;1.42;;;;;;;;;;5020576;28;20032;-75
2021/05/22 10:50:35;;;;;;;12.90;0.88;;;;;;;;;;5037692;28;20438;-75
2021/05/22 10:53:24;;;;;;;8.02;0.80;;;;;;;;;;5055491;28;20033;-74
2021/05/22 10:56:18;;;;;;;7.65;1.27;;;;;;;;;;5055592;28;20482;-75
2021/05/22 10:58:59;;;;;;;1.75;0.95;;;;;;;;;;5054969;28;20067;-75
2021/05/22 11:01:29;;;;;;;4.50;0.98;;;;;;;;;;5055736;28;20052;-75
2021/05/22 11:04:28;;;;;;;3.85;0.95;;;;;;;;;;5056435;28;20526;-75
2021/05/22 11:07:15;;;;;;;2.50;0.68;;;;;;;;;;5057239;28;20056;-76
2021/05/22 11:09:42;;;;;;;2.00;0.82;;;;;;;;;;5056036;28;20040;-76
2021/05/22 11:12:12;;;;;;;4.20;1.00;;;;;;;;;;5038797;28;20076;-76
2021/05/22 11:14:44;;;;;;;2.50;0.75;;;;;;;;;;5038358;28;20090;-76
2021/05/22 11:19:59;;;;;;;2.80;0.77;;;;;;;;;;5038443;28;20040;-75
2021/05/22 11:22:25;;;;;;;2.47;0.98;;;;;;;;;;5037970;28;20048;-76
2021/05/22 11:25:10;;;;;;;2.92;0.75;;;;;;;;;;5055269;28;20425;-76
2021/05/22 11:27:45;;;;;;;0.95;0.57;;;;;;;;;;5037188;28;20431;-75
2021/05/22 11:30:15;;;;;;;1.55;0.50;;;;;;;;;;5055936;28;20044;-76
2021/05/22 11:32:52;;;;;;;3.78;0.85;;;;;;;;;;5037646;28;20112;-75
2021/05/22 11:35:24;;;;;;;2.55;0.75;;;;;;;;;;5038469;28;20032;-75
2021/05/22 11:37:50;;;;;;;2.65;0.63;;;;;;;;;;5058279;28;20032;-75
2021/05/22 11:40:34;;;;;;;2.45;0.68;;;;;;;;;;5057343;28;20441;-75
2021/05/22 11:43:02;;;;;;;3.28;0.57;;;;;;;;;;5055468;28;20051;-75
2021/05/22 11:45:32;;;;;;;3.60;1.08;;;;;;;;;;5055683;28;20025;-74
2021/05/22 11:47:57;;;;;;;4.60;0.93;;;;;;;;;;5055066;28;20036;-75
2021/05/22 11:50:24;;;;;;;2.38;0.45;;;;;;;;;;5054746;28;20095;-74
2021/05/22 11:52:50;;;;;;;1.80;0.75;;;;;;;;;;5054504;28;20029;-74
2021/05/22 11:55:21;;;;;;;3.13;0.85;;;;;;;;;;5054658;28;20037;-74
2021/05/22 11:58:03;;;;;;;4.03;0.65;;;;;;;;;;5054967;28;20442;-74
2021/05/22 12:00:29;;;;;;;2.65;0.90;;;;;;;;;;5054420;28;20028;-74
2021/05/22 12:02:54;;;;;;;3.65;0.70;;;;;;;;;;5054914;28;20037;-75
2021/05/22 12:05:19;;;;;;;1.30;0.68;;;;;;;;;;5054162;28;20119;-74
2021/05/22 12:07:56;;;;;;;3.58;0.80;;;;;;;;;;5054217;28;20113;-74
2021/05/22 12:10:28;;;;;;;2.90;1.40;;;;;;;;;;5054145;28;20090;-75
2021/05/22 12:13:01;;;;;;;2.72;0.77;;;;;;;;;;5035816;28;20045;-76
2021/05/22 12:15:28;;;;;;;1.23;0.50;;;;;;;;;;5035008;28;20055;-76
2021/05/22 12:17:58;;;;;;;1.25;0.60;;;;;;;;;;5055079;28;20096;-73
2021/05/22 12:20:25;;;;;;;1.02;0.47;;;;;;;;;;5055751;28;20024;-73
2021/05/22 12:22:51;;;;;;;3.50;1.52;;;;;;;;;;5053498;28;20486;-73
2021/05/22 12:25:16;;;;;;;1.92;0.73;;;;;;;;;;5054148;28;20100;-73
2021/05/22 12:27:42;;;;;;;0.85;0.47;;;;;;;;;;5054272;28;20060;-75
2021/05/22 12:30:08;;;;;;;0.85;0.50;;;;;;;;;;5054257;28;20075;-75
2021/05/22 12:32:34;;;;;;;1.75;0.95;;;;;;;;;;5054199;28;20041;-75
2021/05/22 12:35:11;;;;;;;1.75;0.60;;;;;;;;;;5054002;28;20044;-75
2021/05/22 12:37:37;;;;;;;1.55;0.68;;;;;;;;;;5054612;28;20048;-77
2021/05/22 12:40:07;;;;;;;0.75;0.43;;;;;;;;;;5037071;28;20029;-78
2021/05/22 12:42:35;;;;;;;1.20;0.40;;;;;;;;;;5039291;28;20039;-78
2021/05/22 12:45:06;;;;;;;5.00;0.50;;;;;;;;;;5038488;28;20021;-77
2021/05/22 12:47:43;;;;;;;1.15;0.70;;;;;;;;;;5035782;28;20052;-77
2021/05/22 12:50:11;;;;;;;4.13;0.50;;;;;;;;;;5055018;28;20045;-77
2021/05/22 12:52:55;;;;;;;1.83;0.55;;;;;;;;;;5057111;28;20037;-79
2021/05/22 12:55:28;;;;;;;2.90;0.65;;;;;;;;;;5056453;28;20044;-77
2021/05/22 12:57:54;;;;;;;3.00;0.68;;;;;;;;;;5037166;28;20032;-76
2021/05/22 13:00:20;;;;;;;3.70;0.70;;;;;;;;;;5056194;28;20456;-81
2021/05/22 13:02:51;;;;;;;7.13;0.88;;;;;;;;;;5055940;28;20425;-78
2021/05/22 13:05:24;;;;;;;2.00;0.70;;;;;;;;;;5053280;28;20404;-77
2021/05/22 13:08:20;;;;;;;1.75;0.65;;;;;;;;;;5035547;28;20071;-77
2021/05/22 13:10:46;;;;;;;1.85;0.60;;;;;;;;;;5033616;28;20079;-76
2021/05/22 13:13:15;;;;;;;2.13;0.77;;;;;;;;;;5053846;28;20459;-77
2021/05/22 13:15:55;;;;;;;1.77;0.68;;;;;;;;;;5054362;28;20033;-76
2021/05/22 13:18:31;;;;;;;1.38;0.70;;;;;;;;;;5054151;28;20064;-75
2021/05/22 13:21:02;;;;;;;5.50;0.98;;;;;;;;;;5053014;28;20033;-76
2021/05/22 13:23:53;;;;;;;3.38;0.80;;;;;;;;;;5059549;28;20033;-75
2021/05/22 13:26:27;;;;;;;1.20;0.60;;;;;;;;;;5040662;28;20477;-75
2021/05/22 13:28:58;;;;;;;1.13;0.60;;;;;;;;;;5058527;28;20040;-74
2021/05/22 13:31:30;;;;;;;1.88;0.80;;;;;;;;;;5047023;28;20542;-75
2021/05/22 13:34:07;;;;;;;1.23;0.73;;;;;;;;;;5053632;28;20060;-74
2021/05/22 13:36:32;;;;;;;2.75;0.65;;;;;;;;;;5054850;28;20032;-75
2021/05/22 13:38:59;;;;;;;1.20;0.40;;;;;;;;;;5041143;28;20232;-75
2021/05/22 13:41:36;;;;;;;1.95;0.80;;;;;;;;;;5057601;28;20039;-75
2021/05/22 13:44:04;;;;;;;3.92;0.68;;;;;;;;;;5035272;28;20474;-76
2021/05/22 13:46:30;;;;;;;2.63;0.73;;;;;;;;;;5053050;28;20037;-75
2021/05/22 13:48:56;;;;;;;0.70;0.70;;;;;;;;;;5058904;28;20064;-75
2021/05/22 13:51:25;;;;;;;2.13;0.63;;;;;;;;;;5056615;28;20032;-74
2021/05/22 13:53:50;;;;;;;1.25;0.60;;;;;;;;;;5052630;28;20139;-76
2021/05/22 13:56:18;;;;;;;1.42;0.55;;;;;;;;;;5043789;28;20466;-75
2021/05/22 13:58:43;;;;;;;3.42;0.60;;;;;;;;;;5054148;28;20037;-75
2021/05/22 14:01:09;;;;;;;2.33;0.57;;;;;;;;;;5065328;28;20021;-77
2021/05/22 14:03:38;;;;;;;1.75;0.70;;;;;;;;;;5069621;28;20381;-76
2021/05/22 14:06:03;;;;;;;4.75;0.90;;;;;;;;;;5075553;28;20055;-76
2021/05/22 14:08:29;;;;;;;1.70;0.65;;;;;;;;;;5065591;28;20040;-77
2021/05/22 14:10:54;;;;;;;1.75;0.73;;;;;;;;;;5046158;28;20052;-76
2021/05/22 14:13:20;;;;;;;1.13;0.65;;;;;;;;;;5056124;28;20048;-76
2021/05/22 14:15:45;;;;;;;0.77;0.45;;;;;;;;;;5038728;28;20029;-76
2021/05/22 14:18:11;;;;;;;2.42;0.65;;;;;;;;;;5056226;28;20071;-76
2021/05/22 14:20:37;;;;;;;1.45;0.68;;;;;;;;;;5056286;28;20071;-76
2021/05/22 14:23:02;;;;;;;1.58;0.90;;;;;;;;;;5057299;28;20040;-76
2021/05/22 14:25:28;;;;;;;1.30;0.60;;;;;;;;;;5055982;28;20459;-75
2021/05/22 14:27:54;;;;;;;1.38;0.63;;;;;;;;;;5055950;28;20542;-75
2021/05/22 14:30:20;;;;;;;3.65;0.63;;;;;;;;;;5056039;28;20059;-75
2021/05/22 14:32:46;;;;;;;1.45;0.50;;;;;;;;;;5056021;28;20028;-76
2021/05/22 14:35:15;;;;;;;3.55;0.60;;;;;;;;;;5058462;28;20511;-75
2021/05/22 14:37:40;;;;;;;2.95;0.85;;;;;;;;;;5065335;28;20028;-73
2021/05/22 14:40:09;;;;;;;1.35;0.80;;;;;;;;;;5055419;28;20025;-73
2021/05/22 14:42:34;;;;;;;0.63;0.52;;;;;;;;;;5045663;28;20143;-74
2021/05/22 14:45:03;;;;;;;5.03;0.90;;;;;;;;;;5035742;28;20554;-73
2021/05/22 14:47:29;;;;;;;1.58;0.70;;;;;;;;;;5017687;28;20075;-74
2021/05/22 14:49:54;;;;;;;1.92;0.90;;;;;;;;;;5017876;28;20065;-73
2021/05/22 14:52:20;;;;;;;1.75;0.80;;;;;;;;;;5035748;28;20541;-75